Eureka, CA

02:10 AM PST die 01o February, anno 2015 (GMT -0800)
Henderson Center | Change Station
CLOSE
Current Station
Personal Weather Stations
Location: Eureka, CA
Elevation: 135 ft
Nearby Weather Stations

Elev 135 ft 40.78 °N, 124.16 °W | Updated 1 second ago

Partialiter Nubila
Partialiter Nubila
47.1 °F
Feels Like 47 °F
N
1.1
Ventus Variabilis Ventus from Eurus
Gusts 2.5 mph

Hodie
High -- | Low -- °F
--% Chance of Precip.
Yesterday
High -- | Low -- °F
Precip. -- in
7:26 AM 5:34 PM
Waxing Gibbous, 94% visible
Pressio 30.14 in
Visibilitas 9.0 milia passuum
Clouds Plerumque Nubila 100 ft
Frigus Venti 47 °F
Frigus in quo Ros apparet 46 °F
Umor 95%
Rainfall 0.00 in
Snow Depth Not available.
UV 0.0 out of 12
Pollen 5.90 out of 12
Air Quality Not available.
Flu Activity Not available.
METAR KACV 010953Z AUTO 09003KT 9SM BKN001 07/07 A3012 RMK AO2 SLP205 T00670067

More Conditions Fewer Conditions

Pressio 30.14 in
Visibilitas 9.0 milia passuum
Clouds Plerumque Nubila 100 ft
Frigus Venti 47 °F
Frigus in quo Ros apparet 46 °F
Umor 95%
Rainfall 0.00 in
Snow Depth Not available.
UV 0.0 out of 12
Pollen 5.90 out of 12
Air Quality Not available.
Flu Activity Not available.
METAR KACV 010953Z AUTO 09003KT 9SM BKN001 07/07 A3012 RMK AO2 SLP205 T00670067

More Conditions Fewer Conditions

10-Day Weather Forecast

Almanac

Astronomy

Feb. 01, 2015 Rise Set
Actual Time
Civil Twilight
Nautical Twilight
Astronomical Twilight
Moon
Length Of Visible Light
Length of Day
Tomorrow will be .
, % of the Moon is Illuminated

Today's Extremes

State Highs State Lows

Community

WunderPhotos

Upload Photos

1,792,330 photos uploaded!

WunderBlogs® & News

Nearby

Air Quality

  Air Quality AQ Index Pollutant
Not available.

Snow Depth

Station Depth Elevation

Earthquake Activity

City Distance Mag. Time & Date
Minimum magnitude displayed is 2.5.

Coastal Water Temperatures

Locus Calor

Nearby Weather Stations